createdAt,value
2019-05-29T00:01:27.293Z,1.27
2019-05-29T00:03:54.759Z,1.10
2019-05-29T00:06:22.219Z,1.30
2019-05-29T00:08:49.706Z,1.20
2019-05-29T00:11:18.222Z,1.45
2019-05-29T00:13:45.872Z,1.73
2019-05-29T00:16:14.420Z,1.77
2019-05-29T00:18:41.724Z,1.23
2019-05-29T00:21:11.542Z,1.30
2019-05-29T00:23:36.821Z,1.73
2019-05-29T00:26:04.309Z,1.35
2019-05-29T00:28:31.774Z,2.90
2019-05-29T00:30:59.271Z,1.23
2019-05-29T00:33:26.885Z,1.58
2019-05-29T00:35:54.418Z,1.80
2019-05-29T00:38:21.878Z,2.00
2019-05-29T00:40:49.348Z,1.50
2019-05-29T00:43:17.564Z,3.30
2019-05-29T00:45:44.412Z,2.60
2019-05-29T00:48:11.869Z,2.55
2019-05-29T00:50:39.328Z,3.53
2019-05-29T00:53:08.039Z,2.50
2019-05-29T00:55:34.310Z,2.97
2019-05-29T00:58:01.800Z,2.28
2019-05-29T01:00:29.295Z,2.85
2019-05-29T01:02:56.783Z,2.55
2019-05-29T01:05:24.273Z,2.25
2019-05-29T01:07:51.787Z,2.45
2019-05-29T01:10:19.254Z,2.37
2019-05-29T01:12:46.701Z,2.72
2019-05-29T01:15:15.375Z,3.08
2019-05-29T01:17:41.740Z,2.25
2019-05-29T01:20:09.244Z,2.80
2019-05-29T01:22:36.717Z,2.20
2019-05-29T01:25:05.035Z,2.40
2019-05-29T01:27:32.525Z,2.75
2019-05-29T01:30:00.019Z,2.97
2019-05-29T01:32:27.470Z,3.85
2019-05-29T01:34:54.937Z,4.68
2019-05-29T01:37:22.418Z,2.70
2019-05-29T01:39:49.875Z,2.10
2019-05-29T01:42:17.352Z,2.78
2019-05-29T01:44:44.820Z,2.70
2019-05-29T01:47:12.272Z,2.90
2019-05-29T01:49:40.518Z,2.67
2019-05-29T01:52:08.118Z,6.70
2019-05-29T01:54:35.585Z,5.70
2019-05-29T01:57:03.099Z,6.62
2019-05-29T01:59:30.607Z,6.15
2019-05-29T02:01:58.074Z,6.93
2019-05-29T02:04:25.531Z,9.25
2019-05-29T02:06:52.997Z,8.75
2019-05-29T02:09:20.518Z,9.07
2019-05-29T02:11:47.975Z,10.60
2019-05-29T02:14:16.372Z,11.38
2019-05-29T02:16:42.967Z,9.80
2019-05-29T02:19:10.457Z,8.63
2019-05-29T02:21:37.918Z,8.30
2019-05-29T02:24:05.425Z,6.32
2019-05-29T02:26:32.875Z,6.53
2019-05-29T02:29:00.345Z,7.10
2019-05-29T02:31:28.871Z,5.07
2019-05-29T02:33:55.314Z,5.53
2019-05-29T02:36:24.530Z,9.07
2019-05-29T02:38:50.895Z,5.57
2019-05-29T02:41:19.144Z,4.87
2019-05-29T02:43:46.655Z,5.25
2019-05-29T02:46:14.119Z,4.40
2019-05-29T02:48:41.682Z,3.35
2019-05-29T02:51:12.178Z,4.55
2019-05-29T02:53:37.091Z,3.35
2019-05-29T02:56:04.575Z,2.97
2019-05-29T02:58:32.156Z,3.15
2019-05-29T03:00:59.645Z,5.18
2019-05-29T03:03:29.548Z,5.75
2019-05-29T03:05:55.555Z,4.80
2019-05-29T03:08:24.709Z,4.97
2019-05-29T03:10:50.605Z,3.65
2019-05-29T03:13:18.083Z,3.50
2019-05-29T03:15:45.544Z,5.65
2019-05-29T03:18:13.051Z,4.65
2019-05-29T03:20:40.511Z,3.30
2019-05-29T03:23:07.993Z,4.62
2019-05-29T03:25:36.931Z,6.28
2019-05-29T03:28:02.978Z,5.30
2019-05-29T03:30:36.807Z,4.95
2019-05-29T03:32:58.011Z,7.00
2019-05-29T03:35:28.182Z,4.93
2019-05-29T03:37:53.072Z,3.30
2019-05-29T03:40:20.554Z,3.40
2019-05-29T03:42:48.028Z,4.03
2019-05-29T03:45:15.583Z,4.37
2019-05-29T03:47:43.059Z,2.47
2019-05-29T03:50:10.534Z,2.30
2019-05-29T03:52:38.930Z,2.92
2019-05-29T03:55:05.533Z,2.60
2019-05-29T03:57:33.868Z,3.15
2019-05-29T04:00:00.541Z,2.75
2019-05-29T04:02:28.726Z,2.75
2019-05-29T04:04:55.716Z,2.75
2019-05-29T04:07:23.197Z,2.70
2019-05-29T04:09:50.645Z,3.28
2019-05-29T04:12:19.156Z,2.75
2019-05-29T04:14:45.639Z,3.15
2019-05-29T04:17:13.102Z,3.20
2019-05-29T04:19:40.586Z,2.20
2019-05-29T04:22:08.913Z,2.10
2019-05-29T04:24:38.063Z,2.47
2019-05-29T04:27:03.889Z,2.22
2019-05-29T04:29:32.016Z,2.80
2019-05-29T04:31:58.883Z,2.33
2019-05-29T04:34:26.370Z,2.33
2019-05-29T04:36:53.859Z,2.47
2019-05-29T04:39:22.586Z,2.30
2019-05-29T04:41:50.595Z,2.92
2019-05-29T04:49:12.120Z,2.45
2019-05-29T04:51:40.022Z,3.05
2019-05-29T07:41:06.345Z,2.15
2019-05-29T08:12:59.788Z,2.62
2019-05-29T08:15:27.516Z,2.85
2019-05-29T08:17:55.012Z,2.87
2019-05-29T08:20:22.575Z,1.70
2019-05-29T08:22:50.549Z,2.92
2019-05-29T08:25:17.557Z,2.05
2019-05-29T08:27:45.051Z,3.83
2019-05-29T08:30:12.675Z,2.03
2019-05-29T08:32:40.809Z,2.87
2019-05-29T08:35:07.757Z,2.00
2019-05-29T08:37:35.230Z,2.35
2019-05-29T08:40:02.743Z,1.67
2019-05-29T08:42:30.200Z,3.75
2019-05-29T08:44:57.665Z,2.72
2019-05-29T08:47:25.172Z,2.40
2019-05-29T08:49:54.430Z,2.12
2019-05-29T08:52:20.226Z,2.15
2019-05-29T08:54:48.097Z,3.35
2019-05-29T08:57:15.266Z,2.33
2019-05-29T08:59:44.436Z,2.67
2019-05-29T09:02:11.055Z,3.37
2019-05-29T09:04:38.576Z,2.90
2019-05-29T09:07:06.060Z,2.60
2019-05-29T09:09:33.713Z,2.60
2019-05-29T09:12:01.215Z,2.70
2019-05-29T09:14:28.689Z,3.08
2019-05-29T09:16:56.305Z,3.17
2019-05-29T09:19:23.924Z,2.55
2019-05-29T09:21:51.384Z,2.45
2019-05-29T09:24:19.407Z,2.03
2019-05-29T09:26:46.698Z,2.00
2019-05-29T09:29:16.726Z,3.30
2019-05-29T09:31:41.471Z,4.80
2019-05-29T09:34:08.929Z,3.30
2019-05-29T09:36:36.408Z,2.55
2019-05-29T09:39:04.256Z,1.58
2019-05-29T09:41:31.751Z,2.42
2019-05-29T09:44:00.342Z,4.55
2019-05-29T10:45:17.440Z,3.17
2019-05-29T10:47:45.521Z,4.28
2019-05-29T10:50:12.752Z,2.15
2019-05-29T10:52:40.439Z,3.25
2019-05-29T10:55:07.918Z,3.35
2019-05-29T10:57:35.397Z,2.12
2019-05-29T11:00:03.622Z,3.33
2019-05-29T11:02:31.128Z,3.12
2019-05-29T11:04:59.689Z,3.83
2019-05-29T11:07:26.114Z,2.60
2019-05-29T11:09:54.283Z,2.30
2019-05-29T11:12:21.085Z,3.08
2019-05-29T11:14:48.631Z,2.92
2019-05-29T11:17:16.242Z,2.70
2019-05-29T11:19:43.792Z,2.20
2019-05-29T11:22:25.725Z,2.60
2019-05-29T11:24:38.901Z,2.58
2019-05-29T11:27:06.540Z,1.70
2019-05-29T11:29:34.480Z,2.10
2019-05-29T11:32:01.966Z,7.53
2019-05-29T11:34:29.437Z,3.50
2019-05-29T11:36:56.961Z,2.00
2019-05-29T11:39:24.431Z,2.60
2019-05-29T11:41:52.703Z,2.12
2019-05-29T11:44:19.558Z,2.45
2019-05-29T11:46:47.017Z,1.85
2019-05-29T11:49:14.481Z,1.70
2019-05-29T11:51:44.407Z,1.87
2019-05-29T11:54:09.712Z,2.72
2019-05-29T11:56:37.194Z,2.33
2019-05-29T11:59:04.871Z,1.65
2019-05-29T12:01:49.155Z,2.58
2019-05-29T12:04:22.024Z,2.28
2019-05-29T12:06:27.495Z,2.05
2019-05-29T12:08:55.767Z,2.72
2019-05-29T12:11:22.621Z,1.70
2019-05-29T12:13:51.586Z,2.85
2019-05-29T12:16:17.768Z,2.00
2019-05-29T12:18:45.216Z,2.33
2019-05-29T12:21:12.702Z,1.65
2019-05-29T12:23:40.277Z,2.28
2019-05-29T12:26:21.479Z,4.10
2019-05-29T12:28:36.201Z,5.57
2019-05-29T12:31:04.326Z,2.10
2019-05-29T12:33:31.796Z,1.90
2019-05-29T12:35:59.305Z,1.87
2019-05-29T12:38:26.759Z,1.80
2019-05-29T12:40:55.339Z,3.00
2019-05-29T12:43:27.132Z,2.37
2019-05-29T12:45:49.411Z,1.65
2019-05-29T12:48:17.193Z,2.45
2019-05-29T12:50:44.496Z,1.70
2019-05-29T12:53:29.073Z,3.37
2019-05-29T12:55:39.513Z,2.65
2019-05-29T12:58:06.976Z,2.85
2019-05-29T13:00:34.459Z,5.22
2019-05-29T13:03:03.115Z,1.70
2019-05-29T13:05:29.522Z,1.45
2019-05-29T13:07:58.682Z,2.40
2019-05-29T13:10:30.606Z,4.75
2019-05-29T13:12:53.272Z,4.40
2019-05-29T13:15:20.277Z,2.90
2019-05-29T13:17:47.758Z,2.40
2019-05-29T13:20:21.801Z,1.90
2019-05-29T13:22:42.864Z,2.35
2019-05-29T13:25:12.245Z,2.67
2019-05-29T13:27:37.894Z,2.30
2019-05-29T13:30:08.356Z,1.80
2019-05-29T13:32:34.534Z,1.98
2019-05-29T13:35:04.228Z,3.15
2019-05-29T13:37:30.749Z,2.12
2019-05-29T13:39:58.262Z,2.05
2019-05-29T13:42:25.782Z,1.60
2019-05-29T13:44:53.888Z,2.00
2019-05-29T13:47:21.036Z,1.90
2019-05-29T13:49:48.517Z,3.75
2019-05-29T13:52:16.278Z,4.90
2019-05-29T13:54:43.774Z,1.77
2019-05-29T13:57:11.254Z,1.95
2019-05-29T13:59:38.727Z,2.35
2019-05-29T14:02:07.872Z,3.55
2019-05-29T14:04:33.946Z,2.30
2019-05-29T14:07:03.241Z,2.80
2019-05-29T14:09:29.185Z,2.08
2019-05-29T14:11:56.647Z,2.03
2019-05-29T14:14:24.130Z,2.17
2019-05-29T14:16:51.679Z,5.15
2019-05-29T14:19:19.201Z,1.73
2019-05-29T14:21:46.709Z,1.58
2019-05-29T14:24:28.743Z,1.60
2019-05-29T14:26:41.734Z,2.33
2019-05-29T14:29:10.064Z,1.50
2019-05-29T14:31:36.944Z,1.85
2019-05-29T14:34:05.145Z,1.40
2019-05-29T14:36:32.030Z,1.80
2019-05-29T14:38:59.565Z,1.23
2019-05-29T14:41:27.079Z,1.90
2019-05-29T14:43:54.540Z,1.55
2019-05-29T14:46:22.082Z,1.67
2019-05-29T14:48:49.546Z,3.45
2019-05-29T14:51:17.131Z,5.72
2019-05-29T14:53:44.614Z,6.03
2019-05-29T14:56:12.681Z,5.60
2019-05-29T14:58:39.606Z,1.73
2019-05-29T15:01:07.239Z,2.65
2019-05-29T15:03:34.733Z,1.95
2019-05-29T15:06:03.457Z,6.43
2019-05-29T15:08:30.008Z,3.03
2019-05-29T15:10:57.451Z,1.50
2019-05-29T15:13:24.942Z,1.27
2019-05-29T15:15:57.473Z,2.35
2019-05-29T15:18:24.960Z,1.92
2019-05-29T15:20:52.454Z,1.30
2019-05-29T15:23:19.915Z,1.98
2019-05-29T15:25:47.382Z,2.47
2019-05-29T15:28:17.380Z,1.90
2019-05-29T15:30:42.652Z,1.58
2019-05-29T15:33:10.899Z,1.67
2019-05-29T15:35:38.220Z,2.10
2019-05-29T15:38:06.683Z,2.20
2019-05-29T15:40:33.302Z,2.37
2019-05-29T15:43:00.792Z,2.12
2019-05-29T15:45:28.404Z,4.18
2019-05-29T15:47:55.925Z,2.80
2019-05-29T15:50:23.441Z,4.55
2019-05-29T15:52:51.791Z,2.17
2019-05-29T15:55:29.607Z,1.37
2019-05-29T15:57:47.438Z,1.70
2019-05-29T16:00:15.726Z,2.80
2019-05-29T16:02:43.046Z,2.70
2019-05-29T16:05:11.156Z,2.90
2019-05-29T16:07:38.006Z,1.85
2019-05-29T16:10:06.370Z,2.30
2019-05-29T16:12:33.871Z,2.65
2019-05-29T16:15:01.372Z,5.62
2019-05-29T16:17:28.874Z,2.28
2019-05-29T16:19:56.354Z,2.28
2019-05-29T16:22:23.814Z,1.40
2019-05-29T16:24:51.359Z,3.35
2019-05-29T16:27:18.833Z,3.25
2019-05-29T16:29:46.337Z,3.05
2019-05-29T16:32:13.814Z,2.12
2019-05-29T16:34:41.322Z,1.90
2019-05-29T16:37:08.835Z,1.45
2019-05-29T16:39:36.295Z,1.80
2019-05-29T16:42:03.738Z,2.58
2019-05-29T16:44:31.273Z,1.62
2019-05-29T16:46:58.957Z,2.60
2019-05-29T16:49:26.443Z,2.47
2019-05-29T16:51:54.037Z,2.47
2019-05-29T16:54:21.509Z,2.30
2019-05-29T16:56:49.036Z,1.90
2019-05-29T16:59:17.038Z,1.15
2019-05-29T17:01:44.295Z,1.80
2019-05-29T17:04:11.750Z,1.45
2019-05-29T17:06:39.375Z,2.75
2019-05-29T17:09:07.914Z,2.20
2019-05-29T17:11:35.409Z,1.70
2019-05-29T17:14:03.041Z,1.50
2019-05-29T17:16:30.588Z,1.83
2019-05-29T17:18:58.870Z,1.55
2019-05-29T17:21:27.000Z,2.03
2019-05-29T17:23:54.508Z,2.10
2019-05-29T17:26:22.761Z,1.92
2019-05-29T17:28:49.565Z,2.62
2019-05-29T17:31:17.058Z,1.60
2019-05-29T17:33:44.543Z,2.30
2019-05-29T17:36:12.110Z,1.75
2019-05-29T17:38:39.907Z,2.05
2019-05-29T17:41:07.430Z,1.42
2019-05-29T17:43:34.914Z,4.07
2019-05-29T17:46:02.434Z,2.35
2019-05-29T17:48:29.995Z,4.47
2019-05-29T17:50:57.761Z,2.50
2019-05-29T17:53:26.184Z,2.10
2019-05-29T17:55:52.824Z,1.65
2019-05-29T17:58:21.081Z,1.40
2019-05-29T18:00:47.953Z,1.70
2019-05-29T18:03:16.081Z,3.37
2019-05-29T18:05:42.995Z,1.85
2019-05-29T18:08:10.634Z,1.80
2019-05-29T18:10:38.116Z,1.65
2019-05-29T18:13:06.191Z,2.17
2019-05-29T18:15:33.754Z,2.40
2019-05-29T18:18:01.305Z,1.90
2019-05-29T18:20:28.850Z,3.20
2019-05-29T18:22:56.367Z,3.55
2019-05-29T18:25:24.049Z,3.12
2019-05-29T18:27:51.464Z,2.60
2019-05-29T18:30:20.192Z,3.20
2019-05-29T18:32:46.647Z,1.90
2019-05-29T18:35:14.367Z,1.80
2019-05-29T18:37:41.882Z,4.72
2019-05-29T18:40:12.418Z,3.25
2019-05-29T18:42:36.959Z,2.22
2019-05-29T18:45:19.645Z,4.72
2019-05-29T18:47:34.111Z,5.70
2019-05-29T18:50:01.568Z,2.50
2019-05-29T18:52:29.945Z,4.07
2019-05-29T18:54:56.844Z,3.05
2019-05-29T18:57:25.079Z,3.58
2019-05-29T18:59:51.913Z,2.15
2019-05-29T19:02:19.401Z,2.20
2019-05-29T19:04:46.908Z,2.08
2019-05-29T19:07:14.396Z,1.40
2019-05-29T19:14:36.032Z,1.67
2019-05-29T19:17:03.578Z,2.35
2019-05-29T19:19:32.379Z,2.97
2019-05-29T19:21:58.623Z,1.73
2019-05-29T19:24:26.569Z,2.05
2019-05-29T19:26:53.652Z,1.98
2019-05-29T19:29:21.257Z,2.17
2019-05-29T19:31:48.725Z,2.37
2019-05-29T19:34:16.200Z,1.10
2019-05-29T19:36:44.040Z,1.90
2019-05-29T19:39:11.693Z,1.55
2019-05-29T19:41:39.201Z,1.65
2019-05-29T19:44:06.722Z,1.80
2019-05-29T19:46:52.277Z,4.93
2019-05-29T19:49:01.768Z,2.90
2019-05-29T19:51:29.243Z,1.90
2019-05-29T19:53:56.822Z,1.90
2019-05-29T19:56:25.568Z,1.60
2019-05-29T19:58:51.970Z,1.90
2019-05-29T20:01:30.771Z,1.70
2019-05-29T20:03:47.006Z,2.12
2019-05-29T20:06:14.500Z,2.60
2019-05-29T20:08:42.028Z,2.47
2019-05-29T20:11:09.626Z,2.15
2019-05-29T20:13:37.986Z,1.45
2019-05-29T20:16:04.708Z,2.47
2019-05-29T20:18:32.172Z,2.22
2019-05-29T20:20:59.730Z,1.60
2019-05-29T20:23:28.488Z,2.50
2019-05-29T20:25:54.949Z,2.40
2019-05-29T20:28:22.540Z,2.60
2019-05-29T20:30:50.034Z,3.58
2019-05-29T20:33:17.544Z,3.47
2019-05-29T20:35:45.045Z,2.87
2019-05-29T20:38:13.372Z,4.37
2019-05-29T20:40:41.819Z,1.62
2019-05-29T20:43:09.500Z,5.12
2019-05-29T20:45:37.686Z,3.15
2019-05-29T20:48:05.266Z,2.85
2019-05-29T20:50:32.887Z,2.30
2019-05-29T20:53:00.459Z,2.00
2019-05-29T20:55:28.006Z,1.60
2019-05-29T20:57:55.637Z,2.30
2019-05-29T21:00:23.162Z,4.12
2019-05-29T21:02:50.645Z,2.60
2019-05-29T21:05:18.235Z,2.60
2019-05-29T21:07:45.743Z,2.28
2019-05-29T21:10:13.349Z,2.15
2019-05-29T21:12:44.077Z,4.32
2019-05-29T21:15:08.378Z,2.50
2019-05-29T21:17:36.043Z,2.65
2019-05-29T21:20:03.560Z,1.65
2019-05-29T21:22:31.684Z,2.37
2019-05-29T21:25:05.034Z,1.25
2019-05-29T21:27:26.866Z,2.03
2019-05-29T21:29:54.363Z,2.62
2019-05-29T21:32:21.893Z,1.42
2019-05-29T21:34:49.344Z,3.12
2019-05-29T21:37:16.856Z,1.75
2019-05-29T21:39:44.708Z,3.22
2019-05-29T21:42:12.220Z,2.33
2019-05-29T21:44:40.669Z,1.40
2019-05-29T21:47:07.192Z,1.83
2019-05-29T21:49:34.627Z,2.50
2019-05-29T21:52:02.135Z,2.53
2019-05-29T21:54:29.634Z,3.00
2019-05-29T21:56:57.138Z,1.80
2019-05-29T21:59:24.692Z,2.40
2019-05-29T22:01:52.276Z,2.50
2019-05-29T22:04:19.731Z,1.83
2019-05-29T22:06:49.016Z,2.70
2019-05-29T22:09:16.619Z,1.98
2019-05-29T22:11:44.149Z,2.90
2019-05-29T22:14:11.668Z,1.87
2019-05-29T22:16:39.210Z,1.90
2019-05-29T22:19:06.642Z,1.87
2019-05-29T22:21:34.149Z,2.03
2019-05-29T22:24:01.645Z,3.47
2019-05-29T22:26:29.144Z,1.90
2019-05-29T22:28:58.592Z,2.45
2019-05-29T22:31:24.216Z,1.90
2019-05-29T22:33:53.409Z,2.70
2019-05-29T22:36:20.493Z,2.20
2019-05-29T22:38:48.075Z,3.10
2019-05-29T22:41:15.597Z,1.80
2019-05-29T22:43:43.108Z,3.22
2019-05-29T22:46:10.562Z,2.00
2019-05-29T22:48:38.021Z,2.10
2019-05-29T22:51:05.493Z,2.78
2019-05-29T22:53:33.059Z,2.53
2019-05-29T22:56:00.531Z,2.72
2019-05-29T22:58:27.988Z,2.12
2019-05-29T23:00:55.935Z,2.40
2019-05-29T23:03:22.990Z,1.95
2019-05-29T23:05:51.974Z,3.58
2019-05-29T23:08:18.105Z,2.58
2019-05-29T23:10:45.575Z,1.60
2019-05-29T23:13:13.203Z,2.40
2019-05-29T23:15:41.007Z,2.53
2019-05-29T23:18:08.475Z,1.90
2019-05-29T23:20:35.956Z,3.72
2019-05-29T23:23:03.441Z,2.37
2019-05-29T23:25:31.069Z,3.08
2019-05-29T23:27:59.047Z,2.55
2019-05-29T23:30:26.125Z,4.25
2019-05-29T23:32:54.765Z,3.53
2019-05-29T23:35:21.322Z,2.95
2019-05-29T23:37:48.780Z,2.35
2019-05-29T23:40:16.262Z,2.50
2019-05-29T23:42:43.836Z,2.28
2019-05-29T23:45:11.307Z,2.37
2019-05-29T23:47:38.802Z,2.67
2019-05-29T23:50:06.302Z,2.45
2019-05-29T23:52:33.770Z,2.05
2019-05-29T23:55:01.927Z,2.53
2019-05-29T23:57:28.752Z,1.87
